createdAt,value
2018-03-22T00:00:11.602Z,43.67
2018-03-22T00:04:14.158Z,38.47
2018-03-22T00:08:17.472Z,41.83
2018-03-22T00:12:20.105Z,37.73
2018-03-22T00:16:22.626Z,35.20
2018-03-22T00:20:25.337Z,42.20
2018-03-22T00:24:27.865Z,41.43
2018-03-22T00:28:30.409Z,49.17
2018-03-22T00:32:36.985Z,44.07
2018-03-22T00:36:39.538Z,44.83
2018-03-22T00:40:42.048Z,48.63
2018-03-22T00:44:44.593Z,46.53
2018-03-22T00:48:47.114Z,47.83
2018-03-22T00:52:49.660Z,50.90
2018-03-22T00:56:52.190Z,51.83
2018-03-22T01:00:54.736Z,54.00
2018-03-22T01:04:57.262Z,52.70
2018-03-22T01:08:59.956Z,48.77
2018-03-22T01:13:05.180Z,53.23
2018-03-22T01:17:07.729Z,48.00
2018-03-22T01:21:11.019Z,52.20
2018-03-22T01:25:13.869Z,47.00
2018-03-22T01:29:17.170Z,43.30
2018-03-22T01:33:19.753Z,38.90
2018-03-22T01:37:22.313Z,41.27
2018-03-22T01:41:25.804Z,41.70
2018-03-22T01:45:28.362Z,38.40
2018-03-22T01:49:30.936Z,38.17
2018-03-22T01:53:33.468Z,42.93
2018-03-22T01:57:36.041Z,42.57
2018-03-22T02:01:38.574Z,38.27
2018-03-22T02:05:41.129Z,38.43
2018-03-22T02:09:43.653Z,35.90
2018-03-22T02:13:46.224Z,37.47
2018-03-22T02:17:48.744Z,36.43
2018-03-22T02:21:51.577Z,33.23
2018-03-22T02:25:54.092Z,33.93
2018-03-22T02:29:57.550Z,36.67
2018-03-22T02:34:01.024Z,41.93
2018-03-22T02:38:03.596Z,39.20
2018-03-22T02:42:06.155Z,37.30
2018-03-22T02:46:08.692Z,30.43
2018-03-22T02:50:11.215Z,35.13
2018-03-22T02:54:20.501Z,29.93
2018-03-22T02:58:23.029Z,33.03
2018-03-22T03:02:25.690Z,31.33
2018-03-22T03:06:28.220Z,30.90
2018-03-22T03:10:30.876Z,37.53
2018-03-22T03:14:44.160Z,32.87
2018-03-22T03:18:46.703Z,27.67
2018-03-22T03:22:49.218Z,29.73
2018-03-22T03:26:51.800Z,32.53
2018-03-22T03:30:54.337Z,30.60
2018-03-22T03:34:57.664Z,32.73
2018-03-22T03:39:00.960Z,32.43
2018-03-22T03:43:03.534Z,32.17
2018-03-22T03:47:06.048Z,31.20
2018-03-22T03:51:08.684Z,35.10
2018-03-22T03:55:11.204Z,33.00
2018-03-22T03:59:13.748Z,31.17
2018-03-22T04:03:18.242Z,30.53
2018-03-22T04:07:20.788Z,28.93
2018-03-22T04:11:23.304Z,26.87
2018-03-22T04:15:26.183Z,28.73
2018-03-22T04:19:29.468Z,29.23
2018-03-22T04:23:32.008Z,25.63
2018-03-22T04:27:34.527Z,30.33
2018-03-22T04:31:37.835Z,29.73
2018-03-22T04:35:40.353Z,28.07
2018-03-22T04:39:43.680Z,28.60
2018-03-22T04:43:46.980Z,32.00
2018-03-22T04:47:54.069Z,26.97
2018-03-22T04:51:56.584Z,28.43
2018-03-22T04:55:59.139Z,31.33
2018-03-22T05:00:01.644Z,32.23
2018-03-22T05:04:04.212Z,27.80
2018-03-22T05:08:06.745Z,30.13
2018-03-22T05:12:10.056Z,27.50
2018-03-22T05:16:13.333Z,29.43
2018-03-22T05:20:27.413Z,30.03
2018-03-22T05:24:29.955Z,29.50
2018-03-22T05:28:33.079Z,27.77
2018-03-22T05:32:36.397Z,30.10
2018-03-22T05:36:39.320Z,30.13
2018-03-22T05:40:42.608Z,30.93
2018-03-22T05:44:45.345Z,30.23
2018-03-22T05:48:48.657Z,29.60
2018-03-22T05:52:52.095Z,26.67
2018-03-22T05:56:58.456Z,24.47
2018-03-22T06:01:01.404Z,27.83
2018-03-22T06:05:04.744Z,28.77
2018-03-22T06:09:08.056Z,29.63
2018-03-22T06:13:11.364Z,26.90
2018-03-22T06:17:13.935Z,31.10
2018-03-22T06:21:16.467Z,31.07
2018-03-22T06:25:19.017Z,36.07
2018-03-22T06:29:21.549Z,31.50
2018-03-22T06:33:24.105Z,31.13
2018-03-22T06:37:34.608Z,25.70
2018-03-22T06:41:37.923Z,27.87
2018-03-22T06:45:41.293Z,27.63
2018-03-22T06:49:43.928Z,28.43
2018-03-22T06:53:46.441Z,25.83
2018-03-22T06:57:49.369Z,30.17
2018-03-22T07:01:51.896Z,26.40
2018-03-22T07:05:54.454Z,25.37
2018-03-22T07:09:56.992Z,25.50
2018-03-22T07:14:00.321Z,24.27
2018-03-22T07:18:03.606Z,23.33
2018-03-22T07:22:06.252Z,27.57
2018-03-22T07:26:09.527Z,23.87
2018-03-22T07:30:12.213Z,28.83
2018-03-22T07:34:14.736Z,30.97
2018-03-22T07:38:17.589Z,26.73
2018-03-22T07:42:20.884Z,30.20
2018-03-22T07:46:23.480Z,35.70
2018-03-22T07:50:26.001Z,26.97
2018-03-22T07:54:28.556Z,26.43
2018-03-22T07:58:31.073Z,28.70
2018-03-22T08:02:33.619Z,29.80
2018-03-22T08:06:36.145Z,33.33
2018-03-22T08:10:38.804Z,36.03
2018-03-22T08:14:51.660Z,31.80
2018-03-22T08:18:54.220Z,32.13
2018-03-22T08:22:57.504Z,33.03
2018-03-22T08:27:00.057Z,32.43
2018-03-22T08:31:07.922Z,33.03
2018-03-22T08:35:10.482Z,28.67
2018-03-22T08:39:13.019Z,28.67
2018-03-22T08:43:15.567Z,26.67
2018-03-22T08:47:18.091Z,27.87
2018-03-22T08:51:23.361Z,24.17
2018-03-22T08:55:26.675Z,22.80
2018-03-22T08:59:29.241Z,26.70
2018-03-22T09:03:33.694Z,22.23
2018-03-22T09:07:36.341Z,22.77
2018-03-22T09:11:38.868Z,26.47
2018-03-22T09:15:41.429Z,23.87
2018-03-22T09:19:43.943Z,27.33
2018-03-22T09:23:46.484Z,30.13
2018-03-22T09:27:49.058Z,25.67
2018-03-22T09:31:51.691Z,22.27
2018-03-22T09:35:54.976Z,23.60
2018-03-22T09:39:57.549Z,20.10
2018-03-22T09:44:00.068Z,25.60
2018-03-22T09:48:04.668Z,25.23
2018-03-22T09:52:07.965Z,21.70
2018-03-22T09:56:21.288Z,22.50
2018-03-22T10:00:23.814Z,26.63
2018-03-22T10:04:26.379Z,26.00
2018-03-22T10:08:30.914Z,24.23
2018-03-22T10:12:33.441Z,24.27
2018-03-22T10:16:35.959Z,28.07
2018-03-22T10:20:38.565Z,21.23
2018-03-22T10:24:41.092Z,26.27
2018-03-22T10:28:43.681Z,25.37
2018-03-22T10:32:46.208Z,24.50
2018-03-22T10:36:48.871Z,23.33
2018-03-22T10:40:52.170Z,21.73
2018-03-22T10:44:54.816Z,22.20
2018-03-22T10:48:57.330Z,19.33
2018-03-22T10:52:59.889Z,22.73
2018-03-22T10:57:02.403Z,20.40
2018-03-22T11:01:11.391Z,24.20
2018-03-22T11:05:13.905Z,21.00
2018-03-22T11:09:17.364Z,18.63
2018-03-22T11:13:19.900Z,19.27
2018-03-22T11:17:23.231Z,20.03
2018-03-22T11:21:26.540Z,18.07
2018-03-22T11:25:29.170Z,22.57
2018-03-22T11:29:31.735Z,19.50
2018-03-22T11:33:36.484Z,18.73
2018-03-22T11:37:39.005Z,19.57
2018-03-22T11:41:41.707Z,16.40
2018-03-22T11:45:44.224Z,16.93
2018-03-22T11:49:46.901Z,15.97
2018-03-22T11:53:49.474Z,15.90
2018-03-22T11:57:52.763Z,15.60
2018-03-22T12:01:55.309Z,14.20
2018-03-22T12:05:57.968Z,16.73
2018-03-22T12:10:00.529Z,15.17
2018-03-22T12:14:12.499Z,11.40
2018-03-22T12:18:15.032Z,13.70
2018-03-22T12:22:18.376Z,13.90
2018-03-22T12:26:20.892Z,15.40
2018-03-22T12:30:24.229Z,13.27
2018-03-22T12:34:26.756Z,12.40
2018-03-22T12:38:29.400Z,14.37
2018-03-22T12:42:32.721Z,11.33
2018-03-22T12:46:36.047Z,11.17
2018-03-22T12:50:38.565Z,10.97
2018-03-22T12:54:41.212Z,10.90
2018-03-22T12:58:43.732Z,11.37
2018-03-22T13:02:46.285Z,14.07
2018-03-22T13:06:48.803Z,13.13
2018-03-22T13:10:52.311Z,11.50
2018-03-22T13:14:55.589Z,12.77
2018-03-22T13:18:58.224Z,13.47
2018-03-22T13:23:01.509Z,16.17
2018-03-22T13:27:04.053Z,14.37
2018-03-22T13:31:07.549Z,13.13
2018-03-22T13:35:10.100Z,13.77
2018-03-22T13:39:19.224Z,14.80
2018-03-22T13:43:22.133Z,17.30
2018-03-22T13:47:24.657Z,12.83
2018-03-22T13:51:27.237Z,17.87
2018-03-22T13:55:29.759Z,11.83
2018-03-22T13:59:32.315Z,13.20
2018-03-22T14:03:39.244Z,10.70
2018-03-22T14:07:41.835Z,11.93
2018-03-22T14:11:54.096Z,10.13
2018-03-22T14:15:56.728Z,10.47
2018-03-22T14:20:00.232Z,15.23
2018-03-22T14:24:03.844Z,12.30
2018-03-22T14:28:06.381Z,12.17
2018-03-22T14:32:14.756Z,10.07
2018-03-22T14:36:18.051Z,13.03
2018-03-22T14:40:28.231Z,10.77
2018-03-22T14:44:33.992Z,9.73
2018-03-22T14:48:37.321Z,18.07
2018-03-22T14:52:45.241Z,19.73
2018-03-22T14:56:47.783Z,14.27
2018-03-22T15:00:50.305Z,12.77
2018-03-22T15:04:53.944Z,10.87
2018-03-22T15:08:57.234Z,9.37
2018-03-22T15:13:01.690Z,8.23
2018-03-22T15:17:11.866Z,10.10
2018-03-22T15:21:15.301Z,7.30
2018-03-22T15:25:18.953Z,10.73
2018-03-22T15:29:21.532Z,8.47
2018-03-22T15:33:29.445Z,11.47
2018-03-22T15:37:32.092Z,12.07
2018-03-22T15:41:34.624Z,7.97
2018-03-22T15:45:37.954Z,13.47
2018-03-22T15:49:40.472Z,8.77
2018-03-22T15:53:44.074Z,8.80
2018-03-22T15:57:48.237Z,9.83
2018-03-22T16:01:52.013Z,9.53
2018-03-22T16:05:54.560Z,13.23
2018-03-22T16:09:57.897Z,10.93
2018-03-22T16:14:01.184Z,11.87
2018-03-22T16:18:04.808Z,15.33
2018-03-22T16:22:07.347Z,15.07
2018-03-22T16:26:11.784Z,16.43
2018-03-22T16:30:15.086Z,20.77
2018-03-22T16:34:19.679Z,14.43
2018-03-22T16:38:24.204Z,16.70
2018-03-22T16:42:27.798Z,20.07
2018-03-22T16:46:32.220Z,19.57
2018-03-22T16:50:34.881Z,20.90
2018-03-22T16:54:41.602Z,17.43
2018-03-22T16:58:45.120Z,15.60
2018-03-22T17:02:51.648Z,14.70
2018-03-22T17:06:56.464Z,16.87
2018-03-22T17:10:58.990Z,13.77
2018-03-22T17:15:01.564Z,13.10
2018-03-22T17:19:04.128Z,11.77
2018-03-22T17:23:12.759Z,12.53
2018-03-22T17:27:16.068Z,11.77
2018-03-22T17:31:18.623Z,13.73
2018-03-22T17:35:21.148Z,12.40
2018-03-22T17:39:23.720Z,14.07
2018-03-22T17:43:26.254Z,15.47
2018-03-22T17:47:28.918Z,14.37
2018-03-22T17:51:31.436Z,13.90
2018-03-22T17:55:35.783Z,15.10
2018-03-22T17:59:40.072Z,16.97
2018-03-22T18:03:46.201Z,17.37
2018-03-22T18:07:48.784Z,16.30
2018-03-22T18:11:51.364Z,16.57
2018-03-22T18:15:54.824Z,16.00
2018-03-22T18:19:58.788Z,13.50
2018-03-22T18:24:02.291Z,20.63
2018-03-22T18:28:05.840Z,18.40
2018-03-22T18:32:08.364Z,21.97
2018-03-22T18:36:11.063Z,20.63
2018-03-22T18:40:16.962Z,27.90
2018-03-22T18:44:19.611Z,28.47
2018-03-22T18:48:29.673Z,20.30
2018-03-22T18:52:32.298Z,21.47
2018-03-22T18:56:34.825Z,21.53
2018-03-22T19:00:37.372Z,20.17
2018-03-22T19:04:39.908Z,16.93
2018-03-22T19:08:54.921Z,18.23
2018-03-22T19:12:57.491Z,17.77
2018-03-22T19:17:00.981Z,14.93
2018-03-22T19:21:03.540Z,16.50
2018-03-22T19:25:08.055Z,16.07
2018-03-22T19:29:12.318Z,17.27
2018-03-22T19:33:15.746Z,16.90
2018-03-22T19:37:18.314Z,13.67
2018-03-22T19:41:21.865Z,15.47
2018-03-22T19:45:26.153Z,11.87
2018-03-22T19:49:28.744Z,16.90
2018-03-22T19:53:31.272Z,11.87
2018-03-22T19:57:33.952Z,10.70
2018-03-22T20:01:36.490Z,13.87
2018-03-22T20:05:40.191Z,13.43
2018-03-22T20:09:42.852Z,14.70
2018-03-22T20:13:45.437Z,15.93
2018-03-22T20:17:50.705Z,14.50
2018-03-22T20:21:53.376Z,16.40
2018-03-22T20:25:55.954Z,24.40
2018-03-22T20:29:58.625Z,21.40
2018-03-22T20:34:01.300Z,20.80
2018-03-22T20:38:03.923Z,25.50
2018-03-22T20:42:06.447Z,22.33
2018-03-22T20:46:09.013Z,24.07
2018-03-22T20:50:11.928Z,18.33
2018-03-22T20:54:15.256Z,26.73
2018-03-22T20:58:17.890Z,24.87
2018-03-22T21:02:21.198Z,19.27
2018-03-22T21:06:25.480Z,20.33
2018-03-22T21:10:28.154Z,23.27
2018-03-22T21:14:30.681Z,18.13
2018-03-22T21:18:33.620Z,19.73
2018-03-22T21:22:36.144Z,18.00
2018-03-22T21:26:38.776Z,21.73
2018-03-22T21:30:43.284Z,19.27
2018-03-22T21:34:45.856Z,20.23
2018-03-22T21:38:48.388Z,24.03
2018-03-22T21:42:50.952Z,31.67
2018-03-22T21:46:54.272Z,30.97
2018-03-22T21:51:00.545Z,29.07
2018-03-22T21:55:04.064Z,30.00
2018-03-22T21:59:06.686Z,23.70
2018-03-22T22:03:09.196Z,24.97
2018-03-22T22:07:12.512Z,22.60
2018-03-22T22:11:15.043Z,21.87
2018-03-22T22:15:18.499Z,21.03
2018-03-22T22:19:26.760Z,24.97
2018-03-22T22:23:29.296Z,24.17
2018-03-22T22:27:31.831Z,25.87
2018-03-22T22:31:34.385Z,27.07
2018-03-22T22:35:36.896Z,28.33
2018-03-22T22:39:39.465Z,27.00
2018-03-22T22:43:42.914Z,32.17
2018-03-22T22:47:45.474Z,29.77
2018-03-22T22:51:48.766Z,32.90
2018-03-22T22:55:51.478Z,28.00
2018-03-22T22:59:53.997Z,37.90
2018-03-22T23:03:57.405Z,28.90
2018-03-22T23:07:59.916Z,29.70
2018-03-22T23:12:02.465Z,30.17
2018-03-22T23:16:04.986Z,33.30
2018-03-22T23:20:07.546Z,30.80
2018-03-22T23:24:10.064Z,32.37
2018-03-22T23:28:12.711Z,33.73
2018-03-22T23:32:15.232Z,37.23
2018-03-22T23:36:17.897Z,37.37
2018-03-22T23:40:20.421Z,53.53
2018-03-22T23:44:23.736Z,38.57
2018-03-22T23:48:26.259Z,46.83
2018-03-22T23:52:28.833Z,45.53
2018-03-22T23:56:31.411Z,52.43
